sensor_id;sensor_type;location;lat;lon;timestamp;pressure;altitude;pressure_sealevel;temperature;humidity
15007;BME280;7599;50.748;13.142;2023-03-14T00:00:27;93695.94;;;10.23;65.50
15007;BME280;7599;50.748;13.142;2023-03-14T00:03:31;93673.06;;;10.24;65.33
15007;BME280;7599;50.748;13.142;2023-03-14T00:06:34;93661.78;;;10.23;65.19
15007;BME280;7599;50.748;13.142;2023-03-14T00:09:37;93647.84;;;10.23;65.46
15007;BME280;7599;50.748;13.142;2023-03-14T00:12:40;93644.44;;;10.22;65.22
15007;BME280;7599;50.748;13.142;2023-03-14T00:15:42;93620.78;;;10.22;65.33
15007;BME280;7599;50.748;13.142;2023-03-14T00:18:46;93638.13;;;10.23;65.55
15007;BME280;7599;50.748;13.142;2023-03-14T00:21:49;93632.88;;;10.23;65.32
15007;BME280;7599;50.748;13.142;2023-03-14T00:24:52;93649.41;;;10.24;65.48
15007;BME280;7599;50.748;13.142;2023-03-14T00:27:55;93670.44;;;10.24;65.50
15007;BME280;7599;50.748;13.142;2023-03-14T00:30:57;93667.81;;;10.24;65.28
15007;BME280;7599;50.748;13.142;2023-03-14T00:34:01;93665.19;;;10.24;65.59
15007;BME280;7599;50.748;13.142;2023-03-14T00:37:06;93665.47;;;10.22;65.31
15007;BME280;7599;50.748;13.142;2023-03-14T00:40:10;93674.13;;;10.23;65.34
15007;BME280;7599;50.748;13.142;2023-03-14T00:43:12;93688.06;;;10.23;65.46
15007;BME280;7599;50.748;13.142;2023-03-14T00:46:15;93684.63;;;10.23;65.32
15007;BME280;7599;50.748;13.142;2023-03-14T00:49:19;93690.69;;;10.23;65.53
15007;BME280;7599;50.748;13.142;2023-03-14T00:52:22;93708.28;;;10.23;65.33
15007;BME280;7599;50.748;13.142;2023-03-14T00:55:25;93716.94;;;10.23;65.63
15007;BME280;7599;50.748;13.142;2023-03-14T00:58:27;93717.75;;;10.24;65.43
15007;BME280;7599;50.748;13.142;2023-03-14T01:01:30;93695.16;;;10.23;65.41
15007;BME280;7599;50.748;13.142;2023-03-14T01:04:34;93675.69;;;10.24;65.48
15007;BME280;7599;50.748;13.142;2023-03-14T01:07:39;93678.31;;;10.24;65.32
15007;BME280;7599;50.748;13.142;2023-03-14T01:10:41;93686.22;;;10.24;65.57
15007;BME280;7599;50.748;13.142;2023-03-14T01:13:45;93695.94;;;10.23;65.37
15007;BME280;7599;50.748;13.142;2023-03-14T01:16:47;93691.47;;;10.24;65.31
15007;BME280;7599;50.748;13.142;2023-03-14T01:19:51;93701.97;;;10.24;65.33
15007;BME280;7599;50.748;13.142;2023-03-14T01:22:54;93700.13;;;10.24;65.16
15007;BME280;7599;50.748;13.142;2023-03-14T01:25:57;93697.50;;;10.24;65.45
15007;BME280;7599;50.748;13.142;2023-03-14T01:28:59;93692.25;;;10.24;65.47
15007;BME280;7599;50.748;13.142;2023-03-14T01:32:02;93687.00;;;10.24;65.41
15007;BME280;7599;50.748;13.142;2023-03-14T01:35:07;93674.63;;;10.25;65.50
15007;BME280;7599;50.748;13.142;2023-03-14T01:38:10;93668.59;;;10.24;65.53
15007;BME280;7599;50.748;13.142;2023-03-14T01:41:15;93668.59;;;10.24;65.42
15007;BME280;7599;50.748;13.142;2023-03-14T01:44:18;93665.19;;;10.24;65.45
15007;BME280;7599;50.748;13.142;2023-03-14T01:47:20;93674.63;;;10.25;65.40
15007;BME280;7599;50.748;13.142;2023-03-14T01:50:24;93668.59;;;10.24;65.53
15007;BME280;7599;50.748;13.142;2023-03-14T01:53:28;93664.13;;;10.25;65.50
15007;BME280;7599;50.748;13.142;2023-03-14T01:56:31;93673.06;;;10.24;65.31
15007;BME280;7599;50.748;13.142;2023-03-14T01:59:34;93663.34;;;10.24;65.33
15007;BME280;7599;50.748;13.142;2023-03-14T02:02:40;93658.88;;;10.25;65.31
15007;BME280;7599;50.748;13.142;2023-03-14T02:05:46;93661.22;;;10.26;65.45
15007;BME280;7599;50.748;13.142;2023-03-14T02:08:48;93656.25;;;10.25;65.26
15007;BME280;7599;50.748;13.142;2023-03-14T02:11:51;93661.50;;;10.25;65.62
15007;BME280;7599;50.748;13.142;2023-03-14T02:14:54;93660.72;;;10.24;65.46
15007;BME280;7599;50.748;13.142;2023-03-14T02:17:57;93668.31;;;10.26;65.47
15007;BME280;7599;50.748;13.142;2023-03-14T02:21:06;93655.19;;;10.26;65.14
15007;BME280;7599;50.748;13.142;2023-03-14T02:24:17;93657.03;;;10.25;65.39
15007;BME280;7599;50.748;13.142;2023-03-14T02:27:27;93660.44;;;10.26;65.53
15007;BME280;7599;50.748;13.142;2023-03-14T02:30:31;93657.03;;;10.25;65.35
15007;BME280;7599;50.748;13.142;2023-03-14T02:33:35;93673.59;;;10.26;65.51
15007;BME280;7599;50.748;13.142;2023-03-14T02:36:39;93671.75;;;10.26;65.34
15007;BME280;7599;50.748;13.142;2023-03-14T02:39:44;93668.31;;;10.26;65.36
15007;BME280;7599;50.748;13.142;2023-03-14T02:42:49;93670.97;;;10.26;65.43
15007;BME280;7599;50.748;13.142;2023-03-14T02:45:52;93659.38;;;10.27;65.27
15007;BME280;7599;50.748;13.142;2023-03-14T02:48:56;93662.56;;;10.24;65.61
15007;BME280;7599;50.748;13.142;2023-03-14T02:52:00;93654.69;;;10.24;65.42
15007;BME280;7599;50.748;13.142;2023-03-14T02:55:03;93657.31;;;10.24;65.41
15007;BME280;7599;50.748;13.142;2023-03-14T02:58:07;93643.38;;;10.23;65.38
15007;BME280;7599;50.748;13.142;2023-03-14T03:01:09;93638.91;;;10.24;65.40
15007;BME280;7599;50.748;13.142;2023-03-14T03:04:12;93629.19;;;10.24;65.46
15007;BME280;7599;50.748;13.142;2023-03-14T03:07:14;93638.63;;;10.25;65.58
15007;BME280;7599;50.748;13.142;2023-03-14T03:10:17;93630.75;;;10.25;65.16
15007;BME280;7599;50.748;13.142;2023-03-14T03:13:21;93633.38;;;10.25;65.46
15007;BME280;7599;50.748;13.142;2023-03-14T03:16:23;93635.22;;;10.25;65.72
15007;BME280;7599;50.748;13.142;2023-03-14T03:19:26;93649.94;;;10.26;65.72
15007;BME280;7599;50.748;13.142;2023-03-14T03:22:29;93646.25;;;10.27;65.59
15007;BME280;7599;50.748;13.142;2023-03-14T03:25:31;93649.63;;;10.27;65.61
15007;BME280;7599;50.748;13.142;2023-03-14T03:28:36;93649.63;;;10.27;65.72
15007;BME280;7599;50.748;13.142;2023-03-14T03:31:39;93656.47;;;10.28;65.61
15007;BME280;7599;50.748;13.142;2023-03-14T03:34:41;93645.16;;;10.28;65.63
15007;BME280;7599;50.748;13.142;2023-03-14T03:37:44;93636.22;;;10.29;65.40
15007;BME280;7599;50.748;13.142;2023-03-14T03:40:46;93630.97;;;10.29;65.57
15007;BME280;7599;50.748;13.142;2023-03-14T03:43:50;93632.53;;;10.30;65.65
15007;BME280;7599;50.748;13.142;2023-03-14T03:46:53;93629.91;;;10.30;65.79
15007;BME280;7599;50.748;13.142;2023-03-14T03:49:55;93628.84;;;10.31;65.83
15007;BME280;7599;50.748;13.142;2023-03-14T03:52:58;93617.28;;;10.32;65.56
15007;BME280;7599;50.748;13.142;2023-03-14T03:56:00;93611.25;;;10.31;65.62
15007;BME280;7599;50.748;13.142;2023-03-14T03:59:04;93629.38;;;10.33;65.45
15007;BME280;7599;50.748;13.142;2023-03-14T04:02:07;93615.44;;;10.32;65.41
15007;BME280;7599;50.748;13.142;2023-03-14T04:05:10;93621.47;;;10.33;65.36
15007;BME280;7599;50.748;13.142;2023-03-14T04:08:13;93621.47;;;10.33;65.34
15007;BME280;7599;50.748;13.142;2023-03-14T04:11:15;93621.22;;;10.34;65.35
15007;BME280;7599;50.748;13.142;2023-03-14T04:14:20;93613.31;;;10.34;65.41
15007;BME280;7599;50.748;13.142;2023-03-14T04:17:22;93601.25;;;10.33;65.69
15007;BME280;7599;50.748;13.142;2023-03-14T04:20:26;93614.09;;;10.35;65.70
15007;BME280;7599;50.748;13.142;2023-03-14T04:23:29;93593.09;;;10.35;65.59
15007;BME280;7599;50.748;13.142;2023-03-14T04:26:32;93597.28;;;10.36;65.62
15007;BME280;7599;50.748;13.142;2023-03-14T04:29:36;93594.66;;;10.36;65.45
15007;BME280;7599;50.748;13.142;2023-03-14T04:32:39;93605.16;;;10.36;65.56
15007;BME280;7599;50.748;13.142;2023-03-14T04:35:42;93602.53;;;10.36;65.63
15007;BME280;7599;50.748;13.142;2023-03-14T04:38:44;93607.78;;;10.36;65.46
15007;BME280;7599;50.748;13.142;2023-03-14T04:41:47;93602.25;;;10.37;65.28
15007;BME280;7599;50.748;13.142;2023-03-14T04:44:51;93590.19;;;10.36;65.55
15007;BME280;7599;50.748;13.142;2023-03-14T04:47:54;93579.41;;;10.38;65.64
15007;BME280;7599;50.748;13.142;2023-03-14T04:50:56;93569.66;;;10.38;65.65
15007;BME280;7599;50.748;13.142;2023-03-14T04:53:59;93554.97;;;10.37;65.30
15007;BME280;7599;50.748;13.142;2023-03-14T04:57:02;93562.84;;;10.37;65.62
15007;BME280;7599;50.748;13.142;2023-03-14T05:00:07;93559.91;;;10.39;65.47
15007;BME280;7599;50.748;13.142;2023-03-14T05:03:11;93562.53;;;10.39;65.45
15007;BME280;7599;50.748;13.142;2023-03-14T05:06:14;93563.31;;;10.39;65.39
15007;BME280;7599;50.748;13.142;2023-03-14T05:09:17;93558.06;;;10.39;65.57
15007;BME280;7599;50.748;13.142;2023-03-14T05:12:20;93565.16;;;10.39;65.33
15007;BME280;7599;50.748;13.142;2023-03-14T05:15:25;93551.28;;;10.38;65.54
15007;BME280;7599;50.748;13.142;2023-03-14T05:18:27;93549.41;;;10.39;65.46
15007;BME280;7599;50.748;13.142;2023-03-14T05:21:30;93547.56;;;10.39;65.67
15007;BME280;7599;50.748;13.142;2023-03-14T05:24:32;93541.50;;;10.39;65.58
15007;BME280;7599;50.748;13.142;2023-03-14T05:27:35;93537.81;;;10.40;65.61
15007;BME280;7599;50.748;13.142;2023-03-14T05:30:39;93532.56;;;10.40;65.70
15007;BME280;7599;50.748;13.142;2023-03-14T05:33:42;93532.56;;;10.40;65.65
15007;BME280;7599;50.748;13.142;2023-03-14T05:36:45;93536.75;;;10.41;65.53
15007;BME280;7599;50.748;13.142;2023-03-14T05:39:47;93527.31;;;10.40;65.13
15007;BME280;7599;50.748;13.142;2023-03-14T05:42:50;93537.81;;;10.40;65.07
15007;BME280;7599;50.748;13.142;2023-03-14T05:45:54;93539.41;;;10.41;65.15
15007;BME280;7599;50.748;13.142;2023-03-14T05:48:57;93528.88;;;10.41;65.38
15007;BME280;7599;50.748;13.142;2023-03-14T05:52:00;93526.53;;;10.39;65.30
15007;BME280;7599;50.748;13.142;2023-03-14T05:55:05;93529.16;;;10.39;65.69
15007;BME280;7599;50.748;13.142;2023-03-14T05:58:08;93531.78;;;10.39;65.48
15007;BME280;7599;50.748;13.142;2023-03-14T06:01:12;93541.50;;;10.39;65.48
15007;BME280;7599;50.748;13.142;2023-03-14T06:04:15;93541.50;;;10.39;65.64
15007;BME280;7599;50.748;13.142;2023-03-14T06:07:17;93528.38;;;10.39;65.40
15007;BME280;7599;50.748;13.142;2023-03-14T06:10:20;93532.56;;;10.40;65.49
15007;BME280;7599;50.748;13.142;2023-03-14T06:13:22;93535.19;;;10.40;65.69
15007;BME280;7599;50.748;13.142;2023-03-14T06:16:28;93537.81;;;10.40;65.30
15007;BME280;7599;50.748;13.142;2023-03-14T06:19:30;93529.94;;;10.40;65.49
15007;BME280;7599;50.748;13.142;2023-03-14T06:22:34;93544.13;;;10.39;65.56
15007;BME280;7599;50.748;13.142;2023-03-14T06:25:37;93533.63;;;10.39;65.62
15007;BME280;7599;50.748;13.142;2023-03-14T06:28:40;93548.34;;;10.40;65.39
15007;BME280;7599;50.748;13.142;2023-03-14T06:31:44;93541.25;;;10.40;65.56
15007;BME280;7599;50.748;13.142;2023-03-14T06:34:47;93537.03;;;10.39;65.68
15007;BME280;7599;50.748;13.142;2023-03-14T06:37:50;93530.25;;;10.38;65.33
15007;BME280;7599;50.748;13.142;2023-03-14T06:40:52;93545.44;;;10.41;65.70
15007;BME280;7599;50.748;13.142;2023-03-14T06:43:55;93535.72;;;10.42;65.68
15007;BME280;7599;50.748;13.142;2023-03-14T06:46:59;93530.44;;;10.42;65.88
15007;BME280;7599;50.748;13.142;2023-03-14T06:50:02;93532.28;;;10.41;65.99
15007;BME280;7599;50.748;13.142;2023-03-14T06:53:06;93524.41;;;10.41;65.49
15007;BME280;7599;50.748;13.142;2023-03-14T06:56:08;93525.97;;;10.42;65.77
15007;BME280;7599;50.748;13.142;2023-03-14T06:59:11;93533.06;;;10.42;65.87
15007;BME280;7599;50.748;13.142;2023-03-14T07:02:15;93547.50;;;10.44;65.67
15007;BME280;7599;50.748;13.142;2023-03-14T07:05:18;93547.00;;;10.42;65.58
15007;BME280;7599;50.748;13.142;2023-03-14T07:08:20;93540.97;;;10.42;65.66
15007;BME280;7599;50.748;13.142;2023-03-14T07:11:23;93545.16;;;10.43;65.84
15007;BME280;7599;50.748;13.142;2023-03-14T07:14:26;93565.13;;;10.44;65.65
15007;BME280;7599;50.748;13.142;2023-03-14T07:17:30;93564.34;;;10.43;65.68
15007;BME280;7599;50.748;13.142;2023-03-14T07:20:32;93568.53;;;10.44;65.55
15007;BME280;7599;50.748;13.142;2023-03-14T07:23:35;93558.31;;;10.43;65.47
15007;BME280;7599;50.748;13.142;2023-03-14T07:26:37;93567.75;;;10.44;65.52
15007;BME280;7599;50.748;13.142;2023-03-14T07:29:40;93576.44;;;10.44;66.09
15007;BME280;7599;50.748;13.142;2023-03-14T07:32:44;93574.59;;;10.45;65.86
15007;BME280;7599;50.748;13.142;2023-03-14T07:35:47;93558.81;;;10.45;65.64
15007;BME280;7599;50.748;13.142;2023-03-14T07:38:50;93559.59;;;10.45;65.82
15007;BME280;7599;50.748;13.142;2023-03-14T07:41:53;93563.28;;;10.44;65.87
15007;BME280;7599;50.748;13.142;2023-03-14T07:44:56;93556.19;;;10.45;65.65
15007;BME280;7599;50.748;13.142;2023-03-14T07:48:00;93556.97;;;10.45;65.90
15007;BME280;7599;50.748;13.142;2023-03-14T07:51:03;93553.56;;;10.45;65.66
15007;BME280;7599;50.748;13.142;2023-03-14T07:54:06;93557.75;;;10.46;66.06
15007;BME280;7599;50.748;13.142;2023-03-14T07:57:09;93564.84;;;10.45;65.87
15007;BME280;7599;50.748;13.142;2023-03-14T08:00:12;93556.19;;;10.45;65.85
15007;BME280;7599;50.748;13.142;2023-03-14T08:03:18;93565.63;;;10.46;65.82
15007;BME280;7599;50.748;13.142;2023-03-14T08:06:20;93574.31;;;10.46;65.92
15007;BME280;7599;50.748;13.142;2023-03-14T08:09:23;93570.91;;;10.46;65.96
15007;BME280;7599;50.748;13.142;2023-03-14T08:12:25;93556.69;;;10.47;65.70
15007;BME280;7599;50.748;13.142;2023-03-14T08:15:29;93558.53;;;10.46;65.62
15007;BME280;7599;50.748;13.142;2023-03-14T08:18:34;93564.59;;;10.47;65.67
15007;BME280;7599;50.748;13.142;2023-03-14T08:21:37;93564.59;;;10.47;65.88
15007;BME280;7599;50.748;13.142;2023-03-14T08:24:39;93565.38;;;10.47;65.79
15007;BME280;7599;50.748;13.142;2023-03-14T08:27:42;93554.84;;;10.47;65.60
15007;BME280;7599;50.748;13.142;2023-03-14T08:30:45;93566.16;;;10.48;65.58
15007;BME280;7599;50.748;13.142;2023-03-14T08:33:50;93565.38;;;10.47;65.35
15007;BME280;7599;50.748;13.142;2023-03-14T08:36:54;93569.84;;;10.47;65.54
15007;BME280;7599;50.748;13.142;2023-03-14T08:39:58;93560.09;;;10.47;66.02
15007;BME280;7599;50.748;13.142;2023-03-14T08:43:04;93554.84;;;10.47;65.58
15007;BME280;7599;50.748;13.142;2023-03-14T08:46:10;93561.69;;;10.48;65.97
15007;BME280;7599;50.748;13.142;2023-03-14T08:49:14;93563.53;;;10.48;65.70
15007;BME280;7599;50.748;13.142;2023-03-14T08:52:17;93554.56;;;10.49;65.45
15007;BME280;7599;50.748;13.142;2023-03-14T08:55:20;93562.47;;;10.49;65.72
15007;BME280;7599;50.748;13.142;2023-03-14T08:58:22;93562.47;;;10.49;65.78
15007;BME280;7599;50.748;13.142;2023-03-14T09:01:25;93572.97;;;10.49;65.72
15007;BME280;7599;50.748;13.142;2023-03-14T09:04:30;93571.13;;;10.49;65.58
15007;BME280;7599;50.748;13.142;2023-03-14T09:07:55;93566.63;;;10.50;65.51
15007;BME280;7599;50.748;13.142;2023-03-14T09:10:59;93572.97;;;10.49;65.75
15007;BME280;7599;50.748;13.142;2023-03-14T09:14:08;93580.88;;;10.49;65.64
15007;BME280;7599;50.748;13.142;2023-03-14T09:25:07;93599.25;;;10.49;65.67
15007;BME280;7599;50.748;13.142;2023-03-14T09:28:17;93598.19;;;10.50;65.57
15007;BME280;7599;50.748;13.142;2023-03-14T09:31:20;93598.19;;;10.50;66.05
15007;BME280;7599;50.748;13.142;2023-03-14T09:34:25;93601.59;;;10.50;65.79
15007;BME280;7599;50.748;13.142;2023-03-14T09:37:28;93585.53;;;10.52;65.83
15007;BME280;7599;50.748;13.142;2023-03-14T09:40:34;93585.53;;;10.52;65.87
15007;BME280;7599;50.748;13.142;2023-03-14T09:43:38;93581.06;;;10.52;65.81
15007;BME280;7599;50.748;13.142;2023-03-14T09:46:44;93587.91;;;10.53;65.38
15007;BME280;7599;50.748;13.142;2023-03-14T09:49:49;93580.78;;;10.54;65.53
15007;BME280;7599;50.748;13.142;2023-03-14T09:52:56;93579.72;;;10.55;65.92
15007;BME280;7599;50.748;13.142;2023-03-14T09:56:02;93579.72;;;10.55;65.67
15007;BME280;7599;50.748;13.142;2023-03-14T09:59:09;93585.78;;;10.55;65.66
15007;BME280;7599;50.748;13.142;2023-03-14T10:02:18;93576.31;;;10.54;65.52
15007;BME280;7599;50.748;13.142;2023-03-14T10:05:22;93571.56;;;10.57;65.57
15007;BME280;7599;50.748;13.142;2023-03-14T10:08:25;93571.84;;;10.55;65.87
15007;BME280;7599;50.748;13.142;2023-03-14T10:11:30;93567.38;;;10.55;65.48
15007;BME280;7599;50.748;13.142;2023-03-14T10:14:34;93561.34;;;10.55;65.64
15007;BME280;7599;50.748;13.142;2023-03-14T10:17:41;93567.38;;;10.55;65.71
15007;BME280;7599;50.748;13.142;2023-03-14T10:20:46;93565.53;;;10.56;65.27
15007;BME280;7599;50.748;13.142;2023-03-14T10:23:49;93580.25;;;10.57;65.41
15007;BME280;7599;50.748;13.142;2023-03-14T10:26:53;93575.78;;;10.58;65.41
15007;BME280;7599;50.748;13.142;2023-03-14T10:29:58;93582.09;;;10.57;65.57
15007;BME280;7599;50.748;13.142;2023-03-14T10:33:08;93576.56;;;10.58;65.61
15007;BME280;7599;50.748;13.142;2023-03-14T10:36:17;93593.38;;;10.57;65.53
15007;BME280;7599;50.748;13.142;2023-03-14T10:39:25;93585.50;;;10.57;65.66
15007;BME280;7599;50.748;13.142;2023-03-14T10:42:30;93576.03;;;10.56;65.56
15007;BME280;7599;50.748;13.142;2023-03-14T10:45:38;93581.81;;;10.58;65.58
15007;BME280;7599;50.748;13.142;2023-03-14T10:48:41;93593.38;;;10.57;65.55
15007;BME280;7599;50.748;13.142;2023-03-14T10:51:45;93590.75;;;10.57;65.52
15007;BME280;7599;50.748;13.142;2023-03-14T10:54:48;93592.34;;;10.58;65.36
15007;BME280;7599;50.748;13.142;2023-03-14T10:57:53;93596.81;;;10.58;65.50
15007;BME280;7599;50.748;13.142;2023-03-14T11:01:06;93590.47;;;10.59;65.57
15007;BME280;7599;50.748;13.142;2023-03-14T11:04:22;93582.88;;;10.57;65.54
15007;BME280;7599;50.748;13.142;2023-03-14T11:07:30;93587.06;;;10.58;65.75
15007;BME280;7599;50.748;13.142;2023-03-14T11:10:35;93598.38;;;10.59;65.40
15007;BME280;7599;50.748;13.142;2023-03-14T11:13:53;93591.28;;;10.59;65.42
15007;BME280;7599;50.748;13.142;2023-03-14T11:17:00;93587.06;;;10.58;65.47
15007;BME280;7599;50.748;13.142;2023-03-14T11:20:22;93586.00;;;10.59;65.38
15007;BME280;7599;50.748;13.142;2023-03-14T11:23:32;93589.44;;;10.60;65.60
15007;BME280;7599;50.748;13.142;2023-03-14T11:26:44;93580.47;;;10.61;65.49
15007;BME280;7599;50.748;13.142;2023-03-14T11:29:55;93582.31;;;10.60;65.60
15007;BME280;7599;50.748;13.142;2023-03-14T11:33:03;93585.75;;;10.61;65.40
15007;BME280;7599;50.748;13.142;2023-03-14T11:36:08;93583.38;;;10.59;65.46
15007;BME280;7599;50.748;13.142;2023-03-14T11:39:14;93590.22;;;10.60;65.37
15007;BME280;7599;50.748;13.142;2023-03-14T11:42:17;93590.22;;;10.60;65.58
15007;BME280;7599;50.748;13.142;2023-03-14T11:45:25;93602.28;;;10.61;65.45
15007;BME280;7599;50.748;13.142;2023-03-14T11:48:37;93606.00;;;10.60;65.58
15007;BME280;7599;50.748;13.142;2023-03-14T11:51:44;93597.31;;;10.60;65.51
15007;BME280;7599;50.748;13.142;2023-03-14T11:54:52;93604.16;;;10.61;65.46
15007;BME280;7599;50.748;13.142;2023-03-14T11:57:58;93604.16;;;10.61;65.49
15007;BME280;7599;50.748;13.142;2023-03-14T12:01:07;93599.63;;;10.61;65.25
15007;BME280;7599;50.748;13.142;2023-03-14T12:04:18;93592.53;;;10.62;65.56
15007;BME280;7599;50.748;13.142;2023-03-14T12:07:28;93592.53;;;10.62;65.51
15007;BME280;7599;50.748;13.142;2023-03-14T12:10:36;93585.44;;;10.62;65.58
15007;BME280;7599;50.748;13.142;2023-03-14T12:13:41;93580.19;;;10.62;65.69
15007;BME280;7599;50.748;13.142;2023-03-14T12:16:53;93568.59;;;10.63;65.60
15007;BME280;7599;50.748;13.142;2023-03-14T12:20:02;93579.38;;;10.62;65.42
15007;BME280;7599;50.748;13.142;2023-03-14T12:23:10;93579.13;;;10.63;65.46
15007;BME280;7599;50.748;13.142;2023-03-14T12:26:17;93573.84;;;10.63;65.43
15007;BME280;7599;50.748;13.142;2023-03-14T12:29:19;93581.75;;;10.63;65.72
15007;BME280;7599;50.748;13.142;2023-03-14T12:32:24;93569.38;;;10.64;65.63
15007;BME280;7599;50.748;13.142;2023-03-14T12:35:36;93584.88;;;10.65;65.67
15007;BME280;7599;50.748;13.142;2023-03-14T12:38:56;93581.47;;;10.65;65.88
15007;BME280;7599;50.748;13.142;2023-03-14T12:42:03;93569.88;;;10.66;65.83
15007;BME280;7599;50.748;13.142;2023-03-14T12:45:21;93573.03;;;10.68;65.79
15007;BME280;7599;50.748;13.142;2023-03-14T12:48:26;93561.72;;;10.67;66.02
15007;BME280;7599;50.748;13.142;2023-03-14T12:51:34;93560.66;;;10.68;65.78
15007;BME280;7599;50.748;13.142;2023-03-14T12:54:43;93552.00;;;10.68;65.46
15007;BME280;7599;50.748;13.142;2023-03-14T12:57:54;93550.94;;;10.69;65.63
15007;BME280;7599;50.748;13.142;2023-03-14T13:01:02;93547.53;;;10.68;65.76
15007;BME280;7599;50.748;13.142;2023-03-14T13:04:10;93545.41;;;10.70;65.79
15007;BME280;7599;50.748;13.142;2023-03-14T13:07:31;93542.78;;;10.70;65.75
15007;BME280;7599;50.748;13.142;2023-03-14T13:10:39;93539.06;;;10.71;65.98
15007;BME280;7599;50.748;13.142;2023-03-14T13:13:47;93536.44;;;10.71;65.58
15007;BME280;7599;50.748;13.142;2023-03-14T13:16:50;93531.19;;;10.71;65.66
15007;BME280;7599;50.748;13.142;2023-03-14T13:19:56;93536.44;;;10.71;65.74
15007;BME280;7599;50.748;13.142;2023-03-14T13:23:00;93530.09;;;10.72;65.65
15007;BME280;7599;50.748;13.142;2023-03-14T13:26:03;93531.66;;;10.73;65.76
15007;BME280;7599;50.748;13.142;2023-03-14T13:29:10;93536.94;;;10.73;65.54
15007;BME280;7599;50.748;13.142;2023-03-14T13:32:20;93541.41;;;10.73;65.86
15007;BME280;7599;50.748;13.142;2023-03-14T13:35:26;93521.94;;;10.74;65.75
15007;BME280;7599;50.748;13.142;2023-03-14T13:38:34;93525.34;;;10.74;65.79
15007;BME280;7599;50.748;13.142;2023-03-14T13:41:37;93518.25;;;10.75;65.83
15007;BME280;7599;50.748;13.142;2023-03-14T13:44:40;93524.28;;;10.75;65.90
15007;BME280;7599;50.748;13.142;2023-03-14T13:47:43;93517.97;;;10.76;65.76
15007;BME280;7599;50.748;13.142;2023-03-14T13:50:51;93523.22;;;10.76;65.74
15007;BME280;7599;50.748;13.142;2023-03-14T13:53:55;93516.91;;;10.77;65.68
15007;BME280;7599;50.748;13.142;2023-03-14T13:56:59;93513.22;;;10.78;65.85
15007;BME280;7599;50.748;13.142;2023-03-14T14:00:05;93518.47;;;10.78;65.77
15007;BME280;7599;50.748;13.142;2023-03-14T14:03:11;93517.69;;;10.78;65.84
15007;BME280;7599;50.748;13.142;2023-03-14T14:06:23;93515.28;;;10.81;65.82
15007;BME280;7599;50.748;13.142;2023-03-14T14:09:30;93517.41;;;10.79;66.17
15007;BME280;7599;50.748;13.142;2023-03-14T14:12:40;93511.09;;;10.80;65.62
15007;BME280;7599;50.748;13.142;2023-03-14T14:15:46;93511.88;;;10.81;65.61
15007;BME280;7599;50.748;13.142;2023-03-14T14:18:51;93512.66;;;10.81;65.70
15007;BME280;7599;50.748;13.142;2023-03-14T14:21:57;93505.81;;;10.80;65.69
15007;BME280;7599;50.748;13.142;2023-03-14T14:25:00;93512.94;;;10.80;65.51
15007;BME280;7599;50.748;13.142;2023-03-14T14:28:14;93506.88;;;10.79;65.65
15007;BME280;7599;50.748;13.142;2023-03-14T14:31:20;93508.72;;;10.79;65.74
15007;BME280;7599;50.748;13.142;2023-03-14T14:34:23;93506.88;;;10.79;65.95
15007;BME280;7599;50.748;13.142;2023-03-14T14:37:30;93496.09;;;10.81;66.04
15007;BME280;7599;50.748;13.142;2023-03-14T14:40:34;93499.78;;;10.80;65.98
15007;BME280;7599;50.748;13.142;2023-03-14T14:43:39;93502.41;;;10.80;65.74
15007;BME280;7599;50.748;13.142;2023-03-14T14:46:42;93501.34;;;10.81;65.75
15007;BME280;7599;50.748;13.142;2023-03-14T14:49:47;93509.25;;;10.81;65.63
15007;BME280;7599;50.748;13.142;2023-03-14T14:52:56;93507.41;;;10.81;65.66
15007;BME280;7599;50.748;13.142;2023-03-14T14:56:04;93500.56;;;10.80;65.58
15007;BME280;7599;50.748;13.142;2023-03-14T14:59:20;93505.81;;;10.80;65.60
15007;BME280;7599;50.748;13.142;2023-03-14T15:02:29;93496.38;;;10.79;65.80
15007;BME280;7599;50.748;13.142;2023-03-14T15:05:32;93502.13;;;10.81;65.71
15007;BME280;7599;50.748;13.142;2023-03-14T15:08:40;93510.81;;;10.82;65.63
15007;BME280;7599;50.748;13.142;2023-03-14T15:11:42;93514.50;;;10.81;65.52
15007;BME280;7599;50.748;13.142;2023-03-14T15:14:45;93517.91;;;10.81;65.92
15007;BME280;7599;50.748;13.142;2023-03-14T15:17:48;93518.69;;;10.82;65.91
15007;BME280;7599;50.748;13.142;2023-03-14T15:20:51;93519.47;;;10.82;65.54
15007;BME280;7599;50.748;13.142;2023-03-14T15:23:57;93535.25;;;10.82;65.53
15007;BME280;7599;50.748;13.142;2023-03-14T15:27:00;93528.44;;;10.81;65.44
15007;BME280;7599;50.748;13.142;2023-03-14T15:30:03;93540.53;;;10.82;65.50
15007;BME280;7599;50.748;13.142;2023-03-14T15:33:06;93538.69;;;10.83;65.78
15007;BME280;7599;50.748;13.142;2023-03-14T15:36:18;93544.72;;;10.83;65.89
15007;BME280;7599;50.748;13.142;2023-03-14T15:39:22;93543.94;;;10.83;65.84
15007;BME280;7599;50.748;13.142;2023-03-14T15:42:25;93549.97;;;10.83;65.99
15007;BME280;7599;50.748;13.142;2023-03-14T15:45:28;93557.09;;;10.83;65.56
15007;BME280;7599;50.748;13.142;2023-03-14T15:48:31;93556.00;;;10.84;65.41
15007;BME280;7599;50.748;13.142;2023-03-14T15:51:34;93568.41;;;10.83;65.79
15007;BME280;7599;50.748;13.142;2023-03-14T15:54:38;93573.66;;;10.83;65.82
15007;BME280;7599;50.748;13.142;2023-03-14T15:57:40;93572.56;;;10.84;65.94
15007;BME280;7599;50.748;13.142;2023-03-14T16:00:43;93579.66;;;10.84;65.73
15007;BME280;7599;50.748;13.142;2023-03-14T16:03:46;93590.19;;;10.84;65.84
15007;BME280;7599;50.748;13.142;2023-03-14T16:06:54;93593.59;;;10.84;65.79
15007;BME280;7599;50.748;13.142;2023-03-14T16:09:58;93594.38;;;10.85;65.75
15007;BME280;7599;50.748;13.142;2023-03-14T16:13:02;93597.81;;;10.85;65.76
15007;BME280;7599;50.748;13.142;2023-03-14T16:16:05;93607.53;;;10.85;65.67
15007;BME280;7599;50.748;13.142;2023-03-14T16:19:08;93613.59;;;10.85;65.84
15007;BME280;7599;50.748;13.142;2023-03-14T16:22:11;93618.56;;;10.87;65.79
15007;BME280;7599;50.748;13.142;2023-03-14T16:25:15;93611.75;;;10.86;66.01